Saint-Sauveur, Quebec

11:40 AM EDT on July 23, 2016 (GMT -0400)
Saint-Sauveur | | Change Station

Elev 920 ft 45.88 °N, 74.19 °W | Updated 8 minutes ago

Mostly Cloudy
Mostly Cloudy
82.2 °F
Feels Like 83 °F
N
3.7
Wind Variable Wind from ESE

Today
High -- | Low -- °F
--% Chance of Precip.
Yesterday
High -- | Low -- °F
Precip. -- in
Pressure 29.77 in
Visibility 25.0 miles
Clouds Few 4500 ft
Scattered Clouds 7500 ft
Scattered Clouds 13000 ft
Mostly Cloudy 18000 ft
Heat Index 83 °F
Dew Point 63 °F
Humidity 53%
Rainfall 0.00 in
Snow Depth Not available.
5:29 AM 8:35 PM
Waning Gibbous, 84% visible
METAR CYMX 231500Z 20007KT 160V240 25SM FEW045TCU SCT075 SCT130 BKN180 25/21 A2977 RMK TCU2AC1AC1AC1 SLP081 DENSITY ALT 1600FT
Pressure 29.77 in
Visibility 25.0 miles
Clouds Few 4500 ft
Scattered Clouds 7500 ft
Scattered Clouds 13000 ft
Mostly Cloudy 18000 ft
Heat Index 83 °F
Dew Point 63 °F
Humidity 53%
Rainfall 0.00 in
Snow Depth Not available.
5:29 AM 8:35 PM
Waning Gibbous, 84% visible
METAR CYMX 231500Z 20007KT 160V240 25SM FEW045TCU SCT075 SCT130 BKN180 25/21 A2977 RMK TCU2AC1AC1AC1 SLP081 DENSITY ALT 1600FT

10-Day Weather Forecast

Almanac

Astronomy

Jul. 23, 2016 Rise Set
Actual Time
Civil Twilight
Nautical Twilight
Astronomical Twilight
Moon
Length of Visible Light
Length of Day
Tomorrow will be .
, % of the Moon is Illuminated

Today's Extremes

Country Highs Country Lows

Community

WunderPhotos

Upload Photos

1,926,847 photos uploaded!

WunderBlog® & News

Nearby

Air Quality

  Air Quality AQ Index Pollutant
Not available.

Snow Depth

Station Depth Elevation

Earthquake Activity

City Distance Mag. Time & Date
Minimum magnitude displayed is 2.5.

Coastal Water Temperatures

Place Temperature

Stations

Nearby Weather Stations

Station Location Temp. Windchill Dew Point Humidity Wind Precip. Elev Updated Type
                   

Watches & Warnings

There are currently no watches in effect.